Time;durP1;ratioP1;P1;durP2;ratioP2;P2;SDS_P1;SDS_P2;PMS_P1;PMS_P2;Temp;Humidity;BMP_temperature;BMP_pressure;BME280_temperature;BME280_humidity;BME280_pressure;Samples;Min_cycle;Max_cycle;Signal;HPM_P1;HPM_P2
2021/01/27 00:00:24;;;;;;;36.92;17.63;;;52.00;2048.00;;;;;;5024184;28;20072;-61
2021/01/27 00:02:52;;;;;;;30.33;17.60;;;52.00;2048.00;;;;;;5002047;28;20069;-60
2021/01/27 00:05:26;;;;;;;34.60;17.00;;;51.90;2073.60;;;;;;5024001;28;20419;-61
2021/01/27 00:07:52;;;;;;;34.00;19.10;;;52.00;2073.60;;;;;;5009456;28;20029;-69
2021/01/27 00:10:18;;;;;;;36.55;18.55;;;52.00;2073.60;;;;;;5008366;28;20022;-61
2021/01/27 00:12:44;;;;;;;31.92;17.52;;;52.00;2073.60;;;;;;5007557;28;20030;-60
2021/01/27 00:15:16;;;;;;;35.03;18.75;;;52.00;2022.40;;;;;;5010586;28;20045;-61
2021/01/27 00:17:42;;;;;;;32.13;18.75;;;52.10;2022.40;;;;;;5010699;28;20026;-61
2021/01/27 00:20:10;;;;;;;33.55;18.55;;;52.10;2048.00;;;;;;5010420;28;20048;-61
2021/01/27 00:22:36;;;;;;;34.05;17.42;;;76.80;2048.00;;;;;;5009412;28;20029;-61
2021/01/27 00:25:04;;;;;;;37.63;20.83;;;76.80;2048.00;;;;;;5010570;28;20069;-59
2021/01/27 00:27:30;;;;;;;35.45;18.75;;;76.90;2022.40;;;;;;5000729;28;20069;-61
2021/01/27 00:29:56;;;;;;;31.23;18.23;;;77.00;2022.40;;;;;;5007713;28;20069;-61
2021/01/27 00:32:22;;;;;;;34.03;19.38;;;77.00;1996.80;;;;;;5012154;28;20041;-60
2021/01/27 00:34:47;;;;;;;34.63;18.63;;;77.00;2022.40;;;;;;5007516;28;20030;-61
2021/01/27 00:37:13;;;;;;;35.30;18.92;;;77.10;1996.80;;;;;;5012484;28;20060;-60
2021/01/27 00:39:39;;;;;;;33.88;18.35;;;77.10;1996.80;;;;;;5013847;28;20460;-61
2021/01/27 00:42:04;;;;;;;31.08;17.38;;;77.10;1971.20;;;;;;5012109;28;20735;-61
2021/01/27 00:44:30;;;;;;;32.95;18.05;;;77.00;1971.20;;;;;;5006519;28;20068;-61
2021/01/27 00:46:56;;;;;;;32.45;18.50;;;77.10;1996.80;;;;;;5013988;28;20432;-60
2021/01/27 00:49:23;;;;;;;31.17;18.15;;;77.10;1996.80;;;;;;5015575;28;20022;-62
2021/01/27 00:51:49;;;;;;;31.77;18.70;;;77.00;1996.80;;;;;;5012582;28;20315;-60
2021/01/27 00:54:15;;;;;;;35.53;19.83;;;77.10;1996.80;;;;;;5013446;28;20041;-65
2021/01/27 00:56:41;;;;;;;28.98;17.33;;;77.10;1996.80;;;;;;5011307;28;20028;-61
2021/01/27 00:59:06;;;;;;;33.55;19.33;;;77.20;1971.20;;;;;;5010688;28;20499;-60
2021/01/27 01:01:32;;;;;;;35.08;18.88;;;77.10;1996.80;;;;;;5010345;28;20025;-61
2021/01/27 01:03:58;;;;;;;33.85;19.38;;;77.20;1971.20;;;;;;5009707;28;20049;-60
2021/01/27 01:06:24;;;;;;;32.42;20.20;;;76.80;2048.00;;;;;;5006575;28;20041;-60
2021/01/27 01:08:49;;;;;;;34.15;19.40;;;52.10;2073.60;;;;;;5009274;28;20045;-61
2021/01/27 01:11:15;;;;;;;34.13;18.33;;;77.00;2048.00;;;;;;5009194;28;20040;-60
2021/01/27 01:13:41;;;;;;;29.83;16.65;;;77.20;2022.40;;;;;;5007651;28;20069;-61
2021/01/27 01:16:06;;;;;;;31.42;17.65;;;77.20;2022.40;;;;;;5009077;28;20073;-61
2021/01/27 01:18:32;;;;;;;31.70;17.95;;;77.30;1996.80;;;;;;5009900;28;20050;-60
2021/01/27 01:20:58;;;;;;;34.03;18.80;;;77.40;1971.20;;;;;;5008566;28;20109;-61
2021/01/27 01:23:24;;;;;;;31.83;17.45;;;77.30;1996.80;;;;;;5008897;28;20502;-60
2021/01/27 01:25:51;;;;;;;30.48;17.52;;;77.30;1996.80;;;;;;5010236;28;20018;-60
2021/01/27 01:28:17;;;;;;;26.45;15.45;;;77.10;2048.00;;;;;;5008104;28;20026;-59
2021/01/27 01:30:45;;;;;;;29.45;16.38;;;77.20;2022.40;;;;;;5008564;28;20026;-61
2021/01/27 01:33:22;;;;;;;29.75;17.17;;;77.20;2048.00;;;;;;5008725;28;20041;-61
2021/01/27 01:35:49;;;;;;;26.05;16.30;;;77.10;2073.60;;;;;;5008719;28;20024;-60
2021/01/27 01:38:16;;;;;;;25.88;16.05;;;77.20;2073.60;;;;;;5009230;28;20045;-61
2021/01/27 01:40:45;;;;;;;30.88;16.80;;;77.10;2073.60;;;;;;4994221;28;20022;-61
2021/01/27 01:43:17;;;;;;;30.48;15.63;;;77.10;2048.00;;;;;;5019123;28;20368;-61
2021/01/27 01:45:53;;;;;;;25.75;16.55;;;77.20;2048.00;;;;;;5022793;28;20037;-61
2021/01/27 01:48:38;;;;;;;27.15;15.75;;;77.30;2073.60;;;;;;5014021;28;20080;-61
2021/01/27 01:51:25;;;;;;;28.55;17.48;;;77.20;2048.00;;;;;;5017251;28;20032;-62
2021/01/27 01:53:55;;;;;;;26.83;15.57;;;77.20;2073.60;;;;;;5004647;28;20400;-61
2021/01/27 01:56:25;;;;;;;24.63;15.18;;;77.20;2048.00;;;;;;5028823;28;20221;-61
2021/01/27 01:58:58;;;;;;;28.13;15.00;;;77.30;2048.00;;;;;;5024802;28;20021;-61
2021/01/27 02:01:24;;;;;;;25.50;15.38;;;77.20;2048.00;;;;;;5015036;28;20026;-61
2021/01/27 02:03:51;;;;;;;22.67;14.45;;;77.30;2048.00;;;;;;5025772;28;20100;-61
2021/01/27 02:06:18;;;;;;;25.05;15.35;;;77.20;2048.00;;;;;;5028541;28;20040;-60
2021/01/27 02:08:50;;;;;;;25.65;15.77;;;77.20;2022.40;;;;;;5027455;28;20038;-61
2021/01/27 02:11:54;;;;;;;24.17;15.35;;;77.20;2048.00;;;;;;5024679;28;20022;-61
2021/01/27 02:14:47;;;;;;;28.75;15.20;;;77.20;2073.60;;;;;;5024137;28;20176;-61
2021/01/27 02:17:44;;;;;;;26.60;14.60;;;77.10;2073.60;;;;;;5019864;28;20125;-60
2021/01/27 02:20:35;;;;;;;28.17;15.77;;;77.10;2099.20;;;;;;5016666;28;20072;-60
2021/01/27 02:23:24;;;;;;;28.25;15.30;;;76.90;2099.20;;;;;;5013036;28;20034;-60
2021/01/27 02:26:13;;;;;;;24.55;14.65;;;76.80;2124.80;;;;;;5016069;28;20033;-60
2021/01/27 02:29:04;;;;;;;24.00;14.25;;;76.90;2124.80;;;;;;5015395;28;20034;-60
2021/01/27 02:31:38;;;;;;;27.52;16.38;;;77.00;2099.20;;;;;;5015538;28;20060;-60
2021/01/27 02:34:32;;;;;;;25.63;15.40;;;77.00;2099.20;;;;;;5015445;28;20422;-60
2021/01/27 02:37:11;;;;;;;26.50;15.13;;;76.90;2124.80;;;;;;5015255;28;20105;-61
2021/01/27 02:39:46;;;;;;;29.42;15.45;;;76.90;2099.20;;;;;;5015284;28;20026;-60
2021/01/27 02:42:34;;;;;;;26.90;16.42;;;76.80;2124.80;;;;;;5015274;28;20025;-60
2021/01/27 02:45:16;;;;;;;28.52;16.55;;;76.90;2124.80;;;;;;5015618;28;20033;-61
2021/01/27 02:47:51;;;;;;;32.13;16.25;;;76.90;2124.80;;;;;;4997694;28;20042;-60
2021/01/27 02:50:47;;;;;;;29.30;16.38;;;77.00;2099.20;;;;;;5015165;28;20034;-61
2021/01/27 02:53:23;;;;;;;29.27;16.23;;;76.90;2124.80;;;;;;5007894;28;20091;-61
2021/01/27 02:56:16;;;;;;;26.05;15.48;;;76.90;2124.80;;;;;;5015320;28;20120;-60
2021/01/27 02:58:55;;;;;;;26.45;15.57;;;76.80;2150.40;;;;;;5014590;28;20064;-60
2021/01/27 03:01:30;;;;;;;25.85;16.02;;;52.10;2150.40;;;;;;5014956;28;20053;-60
2021/01/27 03:04:05;;;;;;;24.15;14.55;;;76.80;2150.40;;;;;;5014992;28;20503;-60
2021/01/27 03:06:30;;;;;;;32.00;17.25;;;52.10;2150.40;;;;;;5015208;28;20033;-60
2021/01/27 03:09:04;;;;;;;27.95;16.08;;;51.90;2176.00;;;;;;5015768;28;20042;-60
2021/01/27 03:11:32;;;;;;;29.67;16.55;;;51.90;2201.60;;;;;;4998845;28;20369;-59
2021/01/27 03:14:00;;;;;;;26.65;15.25;;;51.90;2201.60;;;;;;5012371;28;20060;-60
2021/01/27 03:16:30;;;;;;;29.30;18.00;;;51.90;2201.60;;;;;;5018327;28;20484;-59
2021/01/27 03:19:22;;;;;;;26.17;15.13;;;51.70;2227.20;;;;;;5016452;28;20264;-60
2021/01/27 03:22:01;;;;;;;29.73;17.38;;;51.70;2227.20;;;;;;5006409;28;20068;-61
2021/01/27 03:24:32;;;;;;;26.77;16.92;;;51.80;2227.20;;;;;;5014956;28;20018;-61
2021/01/27 03:27:03;;;;;;;31.73;16.98;;;51.70;2227.20;;;;;;5000981;28;20022;-61
2021/01/27 03:29:50;;;;;;;28.23;17.13;;;51.70;2227.20;;;;;;5014357;28;20040;-59
2021/01/27 03:32:24;;;;;;;29.23;18.13;;;51.70;2227.20;;;;;;5000767;28;20018;-61
2021/01/27 03:35:01;;;;;;;31.63;18.25;;;51.70;2227.20;;;;;;5014280;28;20014;-59
2021/01/27 03:37:51;;;;;;;30.58;16.92;;;51.80;2227.20;;;;;;5017347;28;20168;-59
2021/01/27 03:40:19;;;;;;;26.00;16.00;;;51.70;2227.20;;;;;;5020791;28;20037;-60
2021/01/27 03:43:00;;;;;;;31.75;18.40;;;51.70;2227.20;;;;;;5014245;28;20477;-60
2021/01/27 03:45:29;;;;;;;30.73;18.08;;;51.70;2227.20;;;;;;5029140;28;20036;-60
2021/01/27 03:48:05;;;;;;;32.50;19.42;;;51.70;2227.20;;;;;;5033909;28;20057;-60
2021/01/27 03:50:32;;;;;;;31.48;18.25;;;51.80;2227.20;;;;;;5019311;28;20072;-60
2021/01/27 03:53:02;;;;;;;26.83;16.95;;;51.70;2227.20;;;;;;5033802;28;20379;-60
2021/01/27 03:55:53;;;;;;;27.00;17.27;;;51.90;2227.20;;;;;;5034488;28;20384;-60
2021/01/27 03:58:31;;;;;;;30.20;18.00;;;51.80;2227.20;;;;;;4934016;29;20075;-60
2021/01/27 04:01:04;;;;;;;28.35;17.33;;;51.90;2227.20;;;;;;4933791;29;20462;-60
2021/01/27 04:03:30;;;;;;;28.85;17.23;;;51.90;2227.20;;;;;;4923318;29;20102;-60
2021/01/27 04:05:56;;;;;;;24.80;16.70;;;51.80;2227.20;;;;;;4915180;29;20067;-60
2021/01/27 04:08:22;;;;;;;30.98;18.88;;;51.80;2227.20;;;;;;4914877;29;20067;-60
2021/01/27 04:10:48;;;;;;;30.23;17.70;;;51.80;2227.20;;;;;;4915098;29;20043;-60
2021/01/27 04:13:13;;;;;;;30.27;18.42;;;51.90;2227.20;;;;;;4914949;29;20043;-60
2021/01/27 04:15:39;;;;;;;30.08;17.77;;;51.80;2227.20;;;;;;4914239;29;20063;-60
2021/01/27 04:18:05;;;;;;;35.85;18.45;;;51.80;2227.20;;;;;;4896959;29;20040;-60
2021/01/27 04:20:31;;;;;;;32.45;19.00;;;52.00;2227.20;;;;;;4896406;29;20056;-60
2021/01/27 04:22:56;;;;;;;28.00;17.70;;;51.70;2227.20;;;;;;4909105;29;20044;-60
2021/01/27 04:25:23;;;;;;;25.02;16.02;;;51.80;2227.20;;;;;;4904191;29;20027;-60
2021/01/27 04:27:49;;;;;;;30.67;18.23;;;51.90;2227.20;;;;;;4914422;29;20104;-60
2021/01/27 04:30:20;;;;;;;28.15;18.73;;;51.90;2227.20;;;;;;4914712;29;20067;-59
2021/01/27 04:32:46;;;;;;;31.40;18.15;;;52.00;2227.20;;;;;;4914688;29;20040;-59
2021/01/27 04:35:12;;;;;;;30.52;17.88;;;51.90;2227.20;;;;;;4947348;28;20145;-60
2021/01/27 04:37:38;;;;;;;29.73;17.70;;;51.90;2227.20;;;;;;4982078;28;20117;-60
2021/01/27 04:40:12;;;;;;;29.02;17.75;;;51.60;2227.20;;;;;;4993238;28;20537;-61
2021/01/27 04:42:37;;;;;;;31.83;18.25;;;51.50;2227.20;;;;;;4993329;28;20489;-60
2021/01/27 04:45:05;;;;;;;32.83;18.45;;;51.50;2227.20;;;;;;5006656;28;20161;-61
2021/01/27 04:47:52;;;;;;;28.25;16.80;;;51.70;2227.20;;;;;;5000582;28;20050;-60
2021/01/27 04:50:36;;;;;;;30.10;17.35;;;51.80;2227.20;;;;;;4993508;28;20069;-61
2021/01/27 04:53:39;;;;;;;32.30;19.42;;;52.00;2227.20;;;;;;5008177;28;20535;-64
2021/01/27 04:56:19;;;;;;;26.45;16.10;;;52.00;2227.20;;;;;;4915250;29;20040;-63
2021/01/27 04:59:07;;;;;;;29.67;17.20;;;51.90;2227.20;;;;;;4921600;29;20076;-61
2021/01/27 05:01:50;;;;;;;31.05;18.35;;;51.90;2227.20;;;;;;4932626;29;20122;-60
2021/01/27 05:04:35;;;;;;;32.38;17.45;;;52.00;2227.20;;;;;;4914206;29;20056;-61
2021/01/27 05:07:06;;;;;;;28.33;16.77;;;52.00;2227.20;;;;;;4914088;29;20412;-61
2021/01/27 05:10:00;;;;;;;25.58;17.60;;;52.00;2227.20;;;;;;4925111;29;20482;-61
2021/01/27 05:12:37;;;;;;;31.38;17.83;;;52.10;2227.20;;;;;;4912876;29;20164;-60
2021/01/27 05:15:04;;;;;;;30.58;17.88;;;51.90;2227.20;;;;;;4926840;29;20231;-61
2021/01/27 05:17:30;;;;;;;31.98;17.75;;;52.00;2227.20;;;;;;4913542;29;20039;-61
2021/01/27 05:19:56;;;;;;;27.45;17.98;;;52.10;2227.20;;;;;;4913931;29;20051;-61
2021/01/27 05:22:21;;;;;;;28.20;17.02;;;52.10;2227.20;;;;;;4913785;29;20039;-60
2021/01/27 05:24:48;;;;;;;29.35;17.80;;;76.80;2227.20;;;;;;4913908;29;20123;-61
2021/01/27 05:27:33;;;;;;;27.90;16.75;;;76.80;2227.20;;;;;;4912090;29;20040;-60
2021/01/27 05:30:07;;;;;;;29.08;17.45;;;52.10;2227.20;;;;;;4914010;29;20039;-61
2021/01/27 05:32:51;;;;;;;26.02;15.18;;;52.10;2227.20;;;;;;4967188;28;20044;-61
2021/01/27 05:35:30;;;;;;;29.38;17.55;;;52.10;2227.20;;;;;;5005220;28;20063;-61
2021/01/27 05:37:59;;;;;;;26.17;16.90;;;52.10;2227.20;;;;;;5013972;28;20531;-60
2021/01/27 05:40:36;;;;;;;31.25;18.90;;;76.80;2227.20;;;;;;5018480;28;20033;-61
2021/01/27 05:43:24;;;;;;;29.42;17.85;;;76.80;2227.20;;;;;;5013246;28;20392;-60
2021/01/27 05:45:51;;;;;;;28.75;19.13;;;76.80;2227.20;;;;;;5019104;28;20038;-61
2021/01/27 05:48:28;;;;;;;33.70;19.30;;;76.80;2227.20;;;;;;5012428;28;20384;-61
2021/01/27 05:51:02;;;;;;;28.90;17.98;;;76.90;2227.20;;;;;;5012333;28;20408;-61
2021/01/27 05:53:30;;;;;;;27.90;16.92;;;77.00;2227.20;;;;;;4995402;28;20092;-61
2021/01/27 05:55:57;;;;;;;29.98;17.73;;;76.90;2227.20;;;;;;5013457;28;20014;-61
2021/01/27 05:58:23;;;;;;;29.63;17.75;;;76.90;2227.20;;;;;;5014285;28;20037;-62
2021/01/27 06:00:49;;;;;;;28.75;18.23;;;76.80;2227.20;;;;;;5014617;28;20033;-62
2021/01/27 06:03:24;;;;;;;25.15;16.88;;;52.10;2227.20;;;;;;5014537;28;20409;-61
2021/01/27 06:05:51;;;;;;;30.60;18.58;;;52.00;2227.20;;;;;;4996579;28;20414;-61
2021/01/27 06:08:22;;;;;;;32.28;18.13;;;76.80;2227.20;;;;;;5013818;28;20085;-61
2021/01/27 06:10:49;;;;;;;28.73;17.65;;;52.00;2227.20;;;;;;5012657;28;20049;-60
2021/01/27 06:13:30;;;;;;;24.25;16.58;;;76.80;2227.20;;;;;;5011535;28;20053;-60
2021/01/27 06:15:57;;;;;;;40.88;28.35;;;76.80;2227.20;;;;;;5012542;28;20370;-61
2021/01/27 06:18:29;;;;;;;32.80;20.15;;;52.10;2227.20;;;;;;5011661;28;20025;-60
2021/01/27 06:21:13;;;;;;;31.20;18.38;;;76.80;2227.20;;;;;;5012066;28;20017;-61
2021/01/27 06:24:12;;;;;;;23.88;15.15;;;77.10;2227.20;;;;;;5011614;28;20024;-61
2021/01/27 06:27:00;;;;;;;25.00;15.98;;;77.00;2227.20;;;;;;5011977;28;20038;-60
2021/01/27 06:29:43;;;;;;;22.75;14.60;;;76.80;2227.20;;;;;;5011857;28;20076;-61
2021/01/27 06:32:46;;;;;;;22.77;12.82;;;76.90;2227.20;;;;;;5011989;28;20026;-61
2021/01/27 06:35:23;;;;;;;21.20;14.20;;;76.80;2227.20;;;;;;5025750;28;20144;-61
2021/01/27 06:38:00;;;;;;;21.05;13.95;;;76.80;2227.20;;;;;;5012625;28;20029;-77
2021/01/27 06:40:35;;;;;;;20.92;13.40;;;76.80;2227.20;;;;;;5020181;28;20109;-70
2021/01/27 06:43:13;;;;;;;25.85;18.23;;;76.90;2227.20;;;;;;5018067;28;20088;-66
2021/01/27 06:46:16;;;;;;;23.05;14.10;;;52.10;2227.20;;;;;;5020028;28;20097;-69
2021/01/27 06:49:02;;;;;;;22.27;14.25;;;52.10;2227.20;;;;;;4971633;28;20078;-62
2021/01/27 06:51:36;;;;;;;21.38;13.77;;;52.00;2227.20;;;;;;4963208;28;20045;-61
2021/01/27 06:54:35;;;;;;;23.05;15.45;;;52.00;2227.20;;;;;;4957962;28;20034;-61
2021/01/27 06:57:14;;;;;;;22.30;13.45;;;52.00;2227.20;;;;;;4954916;28;20362;-61
2021/01/27 06:59:58;;;;;;;20.80;13.45;;;51.90;2227.20;;;;;;4960954;28;20031;-60
2021/01/27 07:02:44;;;;;;;20.73;13.23;;;51.90;2227.20;;;;;;4959115;28;20031;-61
2021/01/27 07:05:43;;;;;;;20.17;13.52;;;52.00;2227.20;;;;;;4954572;28;20039;-61
2021/01/27 07:08:27;;;;;;;;;;;52.10;2227.20;;;;;;4941962;28;20118;-61
2021/01/27 07:11:08;;;;;;;20.40;12.68;;;52.00;2227.20;;;;;;4954954;28;19916;-62
2021/01/27 07:13:54;;;;;;;21.92;13.07;;;52.00;2227.20;;;;;;4954539;28;20588;-61
2021/01/27 07:16:38;;;;;;;19.60;12.77;;;52.00;2227.20;;;;;;4957448;28;20031;-61
2021/01/27 07:19:30;;;;;;;19.30;13.07;;;52.10;2227.20;;;;;;4962261;28;20098;-62
2021/01/27 07:22:25;;;;;;;21.08;13.70;;;52.10;2227.20;;;;;;4941947;28;20101;-62
2021/01/27 07:25:02;;;;;;;20.45;13.88;;;51.90;2227.20;;;;;;4997831;28;20034;-62
2021/01/27 07:27:32;;;;;;;17.55;11.98;;;52.00;2227.20;;;;;;5018186;28;20116;-62
2021/01/27 07:30:07;;;;;;;20.83;14.65;;;76.80;2227.20;;;;;;5017849;28;20047;-60
2021/01/27 07:32:59;;;;;;;22.50;14.45;;;76.80;2227.20;;;;;;5013584;28;20032;-61
2021/01/27 07:35:44;;;;;;;22.58;14.23;;;76.80;2227.20;;;;;;5015146;28;20396;-60
2021/01/27 07:38:18;;;;;;;25.67;14.90;;;76.80;2227.20;;;;;;5014493;28;20539;-60
2021/01/27 07:41:07;;;;;;;27.33;15.50;;;52.10;2227.20;;;;;;5016554;28;20018;-61
2021/01/27 07:43:59;;;;;;;21.70;12.70;;;76.80;2227.20;;;;;;5018319;28;20022;-60
2021/01/27 07:46:42;;;;;;;25.73;14.75;;;52.10;2227.20;;;;;;5014910;28;20049;-60
2021/01/27 07:49:11;;;;;;;74.07;67.07;;;76.80;2227.20;;;;;;5016307;28;20034;-61
2021/01/27 07:51:49;;;;;;;24.33;14.40;;;52.10;2227.20;;;;;;5013909;28;20414;-60
2021/01/27 07:54:23;;;;;;;20.95;14.52;;;52.10;2227.20;;;;;;5013696;28;20026;-64
2021/01/27 07:57:08;;;;;;;20.98;14.10;;;76.80;2227.20;;;;;;5015223;28;20018;-60
2021/01/27 07:59:41;;;;;;;18.00;11.80;;;52.10;2227.20;;;;;;5017289;28;20025;-60
2021/01/27 08:02:25;;;;;;;23.55;14.80;;;51.90;2227.20;;;;;;5013853;28;20029;-60
2021/01/27 08:04:55;;;;;;;19.85;12.98;;;51.90;2227.20;;;;;;5016694;28;20457;-60
2021/01/27 08:07:39;;;;;;;22.58;13.68;;;51.80;2227.20;;;;;;5020392;28;20036;-59
2021/01/27 08:10:32;;;;;;;22.67;13.88;;;51.80;2227.20;;;;;;5015297;28;20052;-60
2021/01/27 08:13:05;;;;;;;20.80;14.00;;;51.90;2227.20;;;;;;5013481;28;20101;-60
2021/01/27 08:15:30;;;;;;;22.67;14.77;;;51.80;2227.20;;;;;;5015119;28;20057;-64
2021/01/27 08:17:59;;;;;;;22.25;14.32;;;52.00;2227.20;;;;;;5021715;28;20036;-61
2021/01/27 08:20:31;;;;;;;21.83;14.05;;;51.90;2227.20;;;;;;5018091;28;20083;-62
2021/01/27 08:23:07;;;;;;;21.80;14.25;;;51.70;2227.20;;;;;;5022341;28;20104;-60
2021/01/27 08:26:00;;;;;;;26.95;15.48;;;51.80;2227.20;;;;;;5018264;28;20034;-60
2021/01/27 08:28:39;;;;;;;21.85;14.63;;;52.00;2227.20;;;;;;5016842;28;20064;-60
2021/01/27 08:31:07;;;;;;;24.88;14.82;;;76.80;2227.20;;;;;;5018938;28;20030;-60
2021/01/27 08:33:49;;;;;;;23.10;14.10;;;52.10;2227.20;;;;;;5019288;28;20053;-59
2021/01/27 08:36:18;;;;;;;24.92;15.60;;;52.00;2227.20;;;;;;5001977;28;20392;-60
2021/01/27 08:38:56;;;;;;;24.52;16.02;;;51.70;2227.20;;;;;;5018440;28;20476;-58
2021/01/27 08:41:39;;;;;;;23.35;15.15;;;52.00;2227.20;;;;;;5019302;28;20060;-59
2021/01/27 08:44:27;;;;;;;23.98;15.48;;;52.10;2227.20;;;;;;5008129;28;20476;-59
2021/01/27 08:47:13;;;;;;;23.75;14.73;;;52.10;2227.20;;;;;;5021181;28;20091;-60
2021/01/27 08:49:57;;;;;;;24.55;14.93;;;76.80;2227.20;;;;;;5017193;28;20077;-62
2021/01/27 08:52:29;;;;;;;22.27;14.18;;;52.10;2227.20;;;;;;5013766;28;20427;-62
2021/01/27 08:54:55;;;;;;;22.70;14.98;;;77.00;2227.20;;;;;;5012229;28;20137;-62
2021/01/27 08:57:33;;;;;;;26.05;16.17;;;77.10;2227.20;;;;;;5015353;28;20026;-60
2021/01/27 09:00:17;;;;;;;27.35;18.75;;;76.90;2227.20;;;;;;5015154;28;20480;-61
2021/01/27 09:02:56;;;;;;;25.35;18.83;;;52.10;2227.20;;;;;;5022723;28;20032;-60
2021/01/27 09:05:24;;;;;;;24.15;15.82;;;76.80;2227.20;;;;;;5017259;28;20066;-60
2021/01/27 09:07:53;;;;;;;22.35;13.85;;;77.10;2227.20;;;;;;5014205;28;20373;-62
2021/01/27 09:10:25;;;;;;;20.23;13.98;;;77.00;2227.20;;;;;;5011981;28;20022;-62
2021/01/27 09:12:51;;;;;;;18.55;13.05;;;77.20;2150.40;;;;;;5007085;28;20109;-61
2021/01/27 09:15:31;;;;;;;21.65;14.73;;;77.00;2150.40;;;;;;5015965;28;20142;-60
2021/01/27 09:17:58;;;;;;;19.70;13.65;;;77.20;2176.00;;;;;;5010142;28;20022;-55
2021/01/27 09:20:27;;;;;;;20.00;13.77;;;77.20;2150.40;;;;;;5016301;28;20030;-58
2021/01/27 09:23:04;;;;;;;19.63;13.43;;;77.00;2150.40;;;;;;5013252;28;20032;-58
2021/01/27 09:25:32;;;;;;;20.00;12.88;;;77.20;2124.80;;;;;;5011608;28;20026;-57
2021/01/27 09:28:09;;;;;;;20.27;13.25;;;76.90;2124.80;;;;;;5023230;28;20036;-56
2021/01/27 09:30:35;;;;;;;25.60;18.02;;;77.20;2124.80;;;;;;5016357;28;20064;-58
2021/01/27 09:33:28;;;;;;;19.42;13.68;;;77.50;2099.20;;;;;;5014395;28;20029;-56
2021/01/27 09:36:03;;;;;;;22.00;14.07;;;77.50;2073.60;;;;;;5001230;28;20085;-59
2021/01/27 09:38:29;;;;;;;23.00;14.90;;;102.70;1996.80;;;;;;5008661;28;20108;-59
2021/01/27 09:41:01;;;;;;;21.40;14.75;;;102.60;1996.80;;;;;;5010751;28;20440;-55
2021/01/27 09:43:34;;;;;;;22.63;14.23;;;102.60;1996.80;;;;;;5013206;28;20017;-58
2021/01/27 09:46:26;;;;;;;18.52;12.68;;;102.70;1971.20;;;;;;5013545;28;20428;-58
2021/01/27 09:48:55;;;;;;;21.02;13.85;;;77.40;2022.40;;;;;;5003915;28;20033;-58
2021/01/27 09:51:23;;;;;;;35.15;31.65;;;77.50;2022.40;;;;;;5009638;28;20025;-57
2021/01/27 09:53:54;;;;;;;20.35;13.15;;;77.70;2022.40;;;;;;5016318;28;20022;-64
2021/01/27 09:56:20;;;;;;;18.85;12.68;;;77.40;2022.40;;;;;;5014893;28;20050;-62
2021/01/27 09:58:46;;;;;;;20.77;12.73;;;77.20;2022.40;;;;;;5016774;28;20056;-64
2021/01/27 10:01:20;;;;;;;21.27;12.88;;;77.50;1996.80;;;;;;5018694;28;20025;-61
2021/01/27 10:03:50;;;;;;;18.85;12.95;;;77.70;1996.80;;;;;;5012101;28;20026;-60
2021/01/27 10:06:48;;;;;;;17.17;11.73;;;102.60;1920.00;;;;;;5012927;28;20022;-64
2021/01/27 10:09:16;;;;;;;15.87;11.33;;;102.40;1894.40;;;;;;5012000;28;20129;-62
2021/01/27 10:11:42;;;;;;;21.42;12.68;;;102.60;1843.20;;;;;;5010883;28;20507;-58
2021/01/27 10:14:21;;;;;;;20.70;11.63;;;102.40;1868.80;;;;;;5016963;28;20387;-61
2021/01/27 10:17:09;;;;;;;20.90;12.38;;;102.40;1868.80;;;;;;5010252;28;20026;-63
2021/01/27 10:19:50;;;;;;;18.40;12.35;;;102.70;1843.20;;;;;;5022492;28;20018;-60
2021/01/27 10:22:26;;;;;;;18.70;11.80;;;102.80;1843.20;;;;;;5019274;28;20535;-57
2021/01/27 10:25:00;;;;;;;17.90;11.90;;;102.70;1868.80;;;;;;5016458;28;20021;-64
2021/01/27 10:27:35;;;;;;;18.73;11.18;;;102.80;1843.20;;;;;;5018785;28;20026;-60
2021/01/27 10:30:23;;;;;;;17.02;11.80;;;102.60;1843.20;;;;;;5018415;28;20026;-60
2021/01/27 10:32:48;;;;;;;18.17;12.90;;;102.40;1868.80;;;;;;5020250;28;20022;-59
2021/01/27 10:35:26;;;;;;;18.25;12.13;;;77.50;1945.60;;;;;;5019932;28;20048;-59
2021/01/27 10:38:01;;;;;;;16.63;11.40;;;77.70;1920.00;;;;;;5019970;28;20054;-61
2021/01/27 10:40:34;;;;;;;19.10;11.95;;;77.50;1843.20;;;;;;5019611;28;20072;-61
2021/01/27 10:43:00;;;;;;;17.45;11.05;;;77.60;1868.80;;;;;;5019946;28;20065;-59
2021/01/27 10:45:40;;;;;;;16.88;11.65;;;77.60;1843.20;;;;;;5020110;28;20026;-60
2021/01/27 10:48:12;;;;;;;18.77;11.95;;;77.50;1868.80;;;;;;5019679;28;20140;-61
2021/01/27 10:50:44;;;;;;;18.60;12.65;;;77.30;1920.00;;;;;;5019504;28;20029;-59
2021/01/27 10:53:13;;;;;;;19.80;12.98;;;77.30;1945.60;;;;;;5015318;28;20026;-58
2021/01/27 10:55:40;;;;;;;25.83;14.38;;;77.50;1920.00;;;;;;5015174;28;20120;-61
2021/01/27 10:58:09;;;;;;;24.67;15.83;;;77.60;1920.00;;;;;;5014963;28;20026;-59
2021/01/27 11:00:36;;;;;;;23.13;14.18;;;102.40;1920.00;;;;;;5014866;28;20033;-56
2021/01/27 11:03:01;;;;;;;20.05;13.45;;;102.70;1894.40;;;;;;5015108;28;20360;-61
2021/01/27 11:05:27;;;;;;;20.27;12.77;;;102.50;1868.80;;;;;;5015042;28;20030;-58
2021/01/27 11:07:54;;;;;;;20.02;11.90;;;102.60;1868.80;;;;;;5014896;28;20044;-59
2021/01/27 11:10:20;;;;;;;19.58;11.50;;;77.70;1843.20;;;;;;5014970;28;20026;-62
2021/01/27 11:12:47;;;;;;;19.27;13.52;;;77.60;1868.80;;;;;;5014517;28;20045;-61
2021/01/27 11:15:13;;;;;;;21.52;11.88;;;77.60;1894.40;;;;;;5014654;28;20437;-61
2021/01/27 11:17:39;;;;;;;18.50;12.57;;;77.50;1868.80;;;;;;5014495;28;20044;-60
2021/01/27 11:20:05;;;;;;;17.48;10.63;;;77.50;1868.80;;;;;;5014697;28;20040;-61
2021/01/27 11:22:31;;;;;;;16.52;10.88;;;77.40;1843.20;;;;;;5014537;28;20453;-61
2021/01/27 11:24:57;;;;;;;17.70;10.63;;;77.30;1868.80;;;;;;4988468;28;20030;-60
2021/01/27 11:27:23;;;;;;;21.13;13.00;;;77.30;1868.80;;;;;;4999411;28;20461;-59
2021/01/27 11:29:48;;;;;;;18.80;12.18;;;77.30;1894.40;;;;;;5003774;28;20030;-60
2021/01/27 11:32:14;;;;;;;19.10;12.77;;;77.30;1920.00;;;;;;5014363;28;20057;-59
2021/01/27 11:34:41;;;;;;;21.20;13.48;;;77.70;1868.80;;;;;;5014557;28;20391;-60
2021/01/27 11:37:08;;;;;;;20.90;13.23;;;102.40;1868.80;;;;;;5013272;28;20026;-59
2021/01/27 11:39:34;;;;;;;20.67;13.18;;;102.40;1868.80;;;;;;5013882;28;20030;-59
2021/01/27 11:42:00;;;;;;;17.75;11.60;;;102.50;1868.80;;;;;;5025275;28;20044;-59
2021/01/27 11:44:26;;;;;;;19.95;13.50;;;77.70;1894.40;;;;;;5020598;28;20465;-62
2021/01/27 11:46:52;;;;;;;20.48;11.40;;;77.70;1868.80;;;;;;5021309;28;20037;-66
2021/01/27 11:49:18;;;;;;;21.52;12.30;;;77.50;1843.20;;;;;;5019749;28;20477;-60
2021/01/27 11:51:43;;;;;;;20.63;14.23;;;77.50;1868.80;;;;;;5018326;28;20505;-59
2021/01/27 11:54:09;;;;;;;25.15;13.82;;;77.20;1920.00;;;;;;5013871;28;20076;-59
2021/01/27 11:56:35;;;;;;;23.73;13.68;;;77.20;1920.00;;;;;;5013909;28;20030;-63
2021/01/27 11:59:01;;;;;;;21.35;13.50;;;77.50;1894.40;;;;;;5014126;28;20048;-60
2021/01/27 12:01:28;;;;;;;19.00;12.63;;;102.50;1868.80;;;;;;5013955;28;20033;-59
2021/01/27 12:03:54;;;;;;;16.55;10.25;;;102.80;1792.00;;;;;;5013897;28;20089;-60
2021/01/27 12:06:20;;;;;;;16.67;11.23;;;102.50;1766.40;;;;;;5013454;28;20030;-59
2021/01/27 12:08:48;;;;;;;18.63;11.65;;;102.60;1740.80;;;;;;5014047;28;20146;-61
2021/01/27 12:11:14;;;;;;;20.38;11.77;;;102.70;1766.40;;;;;;5013720;28;20408;-61
2021/01/27 12:13:40;;;;;;;15.32;10.05;;;102.50;1766.40;;;;;;5013655;28;20107;-60
2021/01/27 12:16:05;;;;;;;18.33;11.25;;;102.60;1740.80;;;;;;5012759;28;20037;-59
2021/01/27 12:18:31;;;;;;;13.60;9.38;;;103.00;1689.60;;;;;;5013939;28;20121;-59
2021/01/27 12:20:56;;;;;;;19.58;12.52;;;103.10;1638.40;;;;;;4997700;28;20030;-60
2021/01/27 12:23:22;;;;;;;18.15;11.75;;;128.10;1664.00;;;;;;4993746;28;20034;-59
2021/01/27 12:25:48;;;;;;;16.13;9.95;;;128.00;1612.80;;;;;;4994360;28;20037;-61
2021/01/27 12:28:14;;;;;;;12.18;9.23;;;103.20;1612.80;;;;;;4980096;28;20046;-54
2021/01/27 12:30:40;;;;;;;13.57;9.40;;;103.10;1612.80;;;;;;4994138;28;20030;-55
2021/01/27 12:33:07;;;;;;;13.60;8.98;;;103.20;1612.80;;;;;;4993441;28;20555;-60
2021/01/27 12:35:33;;;;;;;17.48;10.48;;;128.20;1638.40;;;;;;4993736;28;20022;-57
2021/01/27 12:37:59;;;;;;;17.10;9.18;;;128.20;1612.80;;;;;;4993282;28;20033;-59
2021/01/27 12:40:25;;;;;;;14.70;10.45;;;128.10;1612.80;;;;;;4994001;28;20081;-59